createdAt,value
2018-06-03T00:02:14.774Z,101455.05
2018-06-03T00:04:43.244Z,101455.83
2018-06-03T00:07:12.345Z,101453.83
2018-06-03T00:09:40.728Z,101452.12
2018-06-03T00:12:09.001Z,101454.34
2018-06-03T00:14:37.375Z,101454.27
2018-06-03T00:17:05.709Z,101461.16
2018-06-03T00:19:34.030Z,101460.37
2018-06-03T00:22:02.389Z,101455.56
2018-06-03T00:24:30.825Z,101461.30
2018-06-03T00:26:59.198Z,101450.71
2018-06-03T00:29:27.607Z,101455.45
2018-06-03T00:31:55.954Z,101461.70
2018-06-03T00:34:24.360Z,101462.88
2018-06-03T00:36:53.587Z,101466.55
2018-06-03T00:39:21.944Z,101462.56
2018-06-03T00:41:50.290Z,101467.69
2018-06-03T00:44:18.715Z,101466.48
2018-06-03T00:46:47.090Z,101461.36
2018-06-03T00:49:15.427Z,101457.88
2018-06-03T00:51:44.875Z,101455.88
2018-06-03T00:54:13.207Z,101459.29
2018-06-03T00:56:54.721Z,101455.55
2018-06-03T00:59:23.100Z,101458.61
2018-06-03T01:01:51.537Z,101458.89
2018-06-03T01:04:20.529Z,101458.03
2018-06-03T01:06:48.909Z,101454.05
2018-06-03T01:09:17.312Z,101457.23
2018-06-03T01:11:46.209Z,101451.75
2018-06-03T01:14:14.509Z,101445.84
2018-06-03T01:16:42.842Z,101454.59
2018-06-03T01:19:11.368Z,101454.59
2018-06-03T01:21:39.732Z,101451.32
2018-06-03T01:24:08.152Z,101441.73
2018-06-03T01:26:37.349Z,101444.31
2018-06-03T01:29:06.594Z,101447.14
2018-06-03T01:31:34.904Z,101443.31
2018-06-03T01:34:03.589Z,101444.67
2018-06-03T01:36:31.997Z,101437.20
2018-06-03T01:39:00.339Z,101442.96
2018-06-03T01:41:29.051Z,101443.66
2018-06-03T01:43:57.438Z,101440.90
2018-06-03T01:46:25.801Z,101434.27
2018-06-03T01:48:54.983Z,101439.81
2018-06-03T01:51:23.333Z,101433.14
2018-06-03T01:53:51.709Z,101430.98
2018-06-03T01:56:20.203Z,101429.56
2018-06-03T01:58:48.836Z,101428.92
2018-06-03T02:01:17.316Z,101426.86
2018-06-03T02:03:45.681Z,101420.65
2018-06-03T02:06:14.834Z,101421.00
2018-06-03T02:08:43.162Z,101420.86
2018-06-03T02:11:11.986Z,101421.88
2018-06-03T02:13:40.313Z,101415.98
2018-06-03T02:16:08.620Z,101424.94
2018-06-03T02:18:37.591Z,101424.06
2018-06-03T02:21:05.887Z,101426.74
2018-06-03T02:23:34.214Z,101434.11
2018-06-03T02:26:02.562Z,101438.73
2018-06-03T02:28:30.956Z,101440.27
2018-06-03T02:30:59.333Z,101439.41
2018-06-03T02:33:27.752Z,101436.56
2018-06-03T02:35:56.138Z,101439.94
2018-06-03T02:38:24.542Z,101442.72
2018-06-03T02:40:53.048Z,101430.63
2018-06-03T02:43:21.500Z,101441.58
2018-06-03T02:45:49.871Z,101445.84
2018-06-03T02:48:18.260Z,101442.64
2018-06-03T02:50:46.661Z,101443.21
2018-06-03T02:53:14.993Z,101432.79
2018-06-03T02:55:43.338Z,101433.50
2018-06-03T02:58:11.802Z,101442.48
2018-06-03T03:00:40.128Z,101442.20
2018-06-03T03:03:09.404Z,101443.48
2018-06-03T03:05:37.721Z,101442.98
2018-06-03T03:08:06.057Z,101454.94
2018-06-03T03:10:35.246Z,101452.66
2018-06-03T03:13:03.574Z,101458.91
2018-06-03T03:15:31.937Z,101465.36
2018-06-03T03:18:00.302Z,101462.77
2018-06-03T03:20:28.652Z,101465.22
2018-06-03T03:22:57.059Z,101464.26
2018-06-03T03:25:26.262Z,101466.82
2018-06-03T03:27:54.587Z,101463.05
2018-06-03T03:30:22.974Z,101456.80
2018-06-03T03:32:52.152Z,101455.09
2018-06-03T03:35:20.562Z,101451.31
2018-06-03T03:37:48.927Z,101453.23
2018-06-03T03:40:17.689Z,101456.40
2018-06-03T03:42:46.059Z,101459.24
2018-06-03T03:45:14.447Z,101455.69
2018-06-03T03:47:42.857Z,101452.84
2018-06-03T03:50:11.566Z,101457.96
2018-06-03T03:52:39.873Z,101453.98
2018-06-03T03:55:09.785Z,101453.13
2018-06-03T03:57:38.109Z,101458.81
2018-06-03T04:00:06.433Z,101461.48
2018-06-03T04:02:35.547Z,101451.45
2018-06-03T04:05:04.214Z,101453.23
2018-06-03T04:07:32.532Z,101448.76
2018-06-03T04:10:00.869Z,101453.41
2018-06-03T04:12:29.243Z,101453.34
2018-06-03T04:14:57.579Z,101455.61
2018-06-03T04:17:25.955Z,101456.75
2018-06-03T04:19:54.286Z,101461.13
2018-06-03T04:22:22.638Z,101463.72
2018-06-03T04:24:51.249Z,101466.42
2018-06-03T04:27:19.605Z,101469.84
2018-06-03T04:29:48.145Z,101467.37
2018-06-03T04:32:16.588Z,101460.33
2018-06-03T04:34:44.917Z,101456.73
2018-06-03T04:37:13.218Z,101457.45
2018-06-03T04:39:41.704Z,101457.37
2018-06-03T04:42:10.039Z,101465.08
2018-06-03T04:44:38.350Z,101469.41
2018-06-03T04:47:07.532Z,101474.63
2018-06-03T04:49:35.875Z,101476.53
2018-06-03T04:52:04.186Z,101471.05
2018-06-03T04:54:32.602Z,101472.80
2018-06-03T04:57:00.921Z,101476.01
2018-06-03T04:59:29.296Z,101471.81
2018-06-03T05:01:57.660Z,101471.25
2018-06-03T05:04:25.965Z,101483.45
2018-06-03T05:06:54.320Z,101474.00
2018-06-03T05:09:22.792Z,101480.65
2018-06-03T05:11:51.138Z,101485.02
2018-06-03T05:14:19.503Z,101480.58
2018-06-03T05:16:48.268Z,101481.58
2018-06-03T05:19:17.672Z,101480.75
2018-06-03T05:21:46.021Z,101488.29
2018-06-03T05:24:14.505Z,101487.22
2018-06-03T05:26:42.836Z,101479.05
2018-06-03T05:29:11.154Z,101476.91
2018-06-03T05:31:39.557Z,101475.80
2018-06-03T05:34:07.876Z,101471.67
2018-06-03T05:36:36.245Z,101469.70
2018-06-03T05:39:04.593Z,101468.70
2018-06-03T05:41:32.964Z,101470.73
2018-06-03T05:44:01.284Z,101476.21
2018-06-03T05:46:29.697Z,101467.57
2018-06-03T05:48:58.006Z,101477.97
2018-06-03T05:51:26.364Z,101480.36
2018-06-03T05:53:55.078Z,101481.81
2018-06-03T05:56:23.425Z,101485.50
2018-06-03T05:58:51.803Z,101483.36
2018-06-03T06:01:20.525Z,101477.31
2018-06-03T06:03:48.864Z,101479.61
2018-06-03T06:06:17.217Z,101470.48
2018-06-03T06:08:47.399Z,101474.25
2018-06-03T06:11:15.713Z,101471.17
2018-06-03T06:13:44.034Z,101473.89
2018-06-03T06:16:12.417Z,101473.47
2018-06-03T06:18:40.804Z,101476.52
2018-06-03T06:21:09.118Z,101477.52
2018-06-03T06:23:38.546Z,101477.27
2018-06-03T06:26:06.870Z,101480.81
2018-06-03T06:28:35.200Z,101482.67
2018-06-03T06:31:04.235Z,101480.39
2018-06-03T06:33:32.561Z,101477.69
2018-06-03T06:36:00.895Z,101479.72
2018-06-03T06:38:29.269Z,101484.61
2018-06-03T06:40:57.657Z,101490.03
2018-06-03T06:43:26.078Z,101489.02
2018-06-03T06:45:54.532Z,101488.98
2018-06-03T06:48:22.872Z,101483.80
2018-06-03T06:50:51.333Z,101492.62
2018-06-03T06:53:20.104Z,101488.60
2018-06-03T06:55:48.561Z,101480.39
2018-06-03T06:58:17.028Z,101489.30
2018-06-03T07:00:45.384Z,101490.56
2018-06-03T07:03:13.697Z,101497.72
2018-06-03T07:05:42.067Z,101485.17
2018-06-03T07:08:10.433Z,101491.98
2018-06-03T07:10:38.749Z,101491.38
2018-06-03T07:13:07.087Z,101495.17
2018-06-03T07:15:35.438Z,101503.91
2018-06-03T07:18:03.750Z,101506.27
2018-06-03T07:20:32.093Z,101506.45
2018-06-03T07:23:01.265Z,101504.91
2018-06-03T07:25:29.621Z,101507.63
2018-06-03T07:27:57.988Z,101510.77
2018-06-03T07:30:27.405Z,101509.23
2018-06-03T07:32:55.769Z,101507.70
2018-06-03T07:35:24.131Z,101508.19
2018-06-03T07:37:52.539Z,101508.91
2018-06-03T07:40:20.861Z,101510.52
2018-06-03T07:42:49.246Z,101515.20
2018-06-03T07:45:17.664Z,101515.77
2018-06-03T07:47:45.995Z,101515.00
2018-06-03T07:50:14.359Z,101513.08
2018-06-03T07:52:43.494Z,101515.20
2018-06-03T07:55:11.827Z,101510.09
2018-06-03T07:57:40.144Z,101524.20
2018-06-03T08:00:08.605Z,101519.36
2018-06-03T08:02:36.929Z,101518.22
2018-06-03T08:05:05.278Z,101516.81
2018-06-03T08:07:34.466Z,101524.19
2018-06-03T08:10:02.817Z,101521.45
2018-06-03T08:12:31.298Z,101515.50
2018-06-03T08:14:59.886Z,101520.83
2018-06-03T08:17:28.573Z,101521.45
2018-06-03T08:19:57.157Z,101524.42
2018-06-03T08:22:26.593Z,101525.98
2018-06-03T08:24:54.965Z,101521.06
2018-06-03T08:27:23.411Z,101526.50
2018-06-03T08:29:51.923Z,101531.08
2018-06-03T08:32:20.327Z,101535.92
2018-06-03T08:34:48.786Z,101536.08
2018-06-03T08:37:17.116Z,101537.63
2018-06-03T08:39:45.445Z,101536.72
2018-06-03T08:42:13.777Z,101536.03
2018-06-03T08:44:42.121Z,101532.91
2018-06-03T08:47:10.443Z,101547.45
2018-06-03T08:49:38.781Z,101547.19
2018-06-03T08:52:07.769Z,101550.81
2018-06-03T08:54:36.077Z,101551.57
2018-06-03T08:57:04.395Z,101553.67
2018-06-03T08:59:32.729Z,101554.10
2018-06-03T09:02:01.050Z,101549.44
2018-06-03T09:04:29.394Z,101558.70
2018-06-03T09:07:30.536Z,101557.84
2018-06-03T09:10:00.160Z,101555.06
2018-06-03T09:12:29.602Z,101554.75
2018-06-03T09:14:59.477Z,101563.22
2018-06-03T09:17:28.857Z,101561.78
2018-06-03T09:19:58.262Z,101562.42
2018-06-03T09:22:27.603Z,101566.28
2018-06-03T09:24:56.957Z,101569.44
2018-06-03T09:27:26.613Z,101566.72
2018-06-03T09:29:56.666Z,101566.41
2018-06-03T09:32:26.309Z,101565.36
2018-06-03T09:34:55.762Z,101577.86
2018-06-03T09:37:25.681Z,101575.23
2018-06-03T09:39:55.237Z,101568.30
2018-06-03T09:42:24.747Z,101572.42
2018-06-03T09:44:54.339Z,101568.16
2018-06-03T09:47:23.784Z,101568.59
2018-06-03T09:49:53.399Z,101566.49
2018-06-03T09:52:23.689Z,101568.39
2018-06-03T09:54:53.188Z,101567.42
2018-06-03T09:57:22.628Z,101569.41
2018-06-03T09:59:53.570Z,101562.02
2018-06-03T10:02:23.132Z,101565.33
2018-06-03T10:04:52.714Z,101572.63
2018-06-03T10:07:22.265Z,101572.90
2018-06-03T10:09:51.753Z,101575.11
2018-06-03T10:12:21.268Z,101574.73
2018-06-03T10:14:50.828Z,101576.97
2018-06-03T10:17:20.506Z,101573.63
2018-06-03T10:19:50.028Z,101579.13
2018-06-03T10:22:19.721Z,101580.81
2018-06-03T10:24:49.186Z,101586.79
2018-06-03T10:27:19.044Z,101577.20
2018-06-03T10:29:55.697Z,101583.06
2018-06-03T10:32:25.253Z,101585.16
2018-06-03T10:34:54.871Z,101580.69
2018-06-03T10:37:25.166Z,101585.19
2018-06-03T10:39:55.103Z,101580.86
2018-06-03T10:42:24.608Z,101582.91
2018-06-03T10:44:54.874Z,101582.97
2018-06-03T10:47:24.305Z,101583.28
2018-06-03T10:49:53.712Z,101581.51
2018-06-03T10:52:23.675Z,101577.43
2018-06-03T10:54:53.589Z,101574.97
2018-06-03T10:57:26.396Z,101583.73
2018-06-03T10:59:55.885Z,101575.09
2018-06-03T11:02:25.850Z,101577.48
2018-06-03T11:04:55.566Z,101576.39
2018-06-03T11:07:25.250Z,101576.73
2018-06-03T11:09:54.769Z,101573.28
2018-06-03T11:12:24.379Z,101574.55
2018-06-03T11:14:53.777Z,101574.23
2018-06-03T11:17:26.047Z,101578.92
2018-06-03T11:19:55.959Z,101573.00
2018-06-03T11:22:25.630Z,101570.97
2018-06-03T11:24:55.420Z,101568.67
2018-06-03T11:27:25.063Z,101574.75
2018-06-03T11:29:54.702Z,101564.52
2018-06-03T11:32:25.027Z,101572.67
2018-06-03T11:34:54.634Z,101563.61
2018-06-03T11:37:24.454Z,101570.84
2018-06-03T11:39:54.964Z,101565.11
2018-06-03T11:42:24.678Z,101564.50
2018-06-03T11:44:54.370Z,101565.95
2018-06-03T11:47:24.402Z,101566.08
2018-06-03T11:49:53.892Z,101573.03
2018-06-03T11:52:23.297Z,101575.02
2018-06-03T11:54:52.997Z,101568.09
2018-06-03T11:57:23.638Z,101573.17
2018-06-03T11:59:53.267Z,101569.11
2018-06-03T12:02:23.033Z,101565.05
2018-06-03T12:04:52.755Z,101570.58
2018-06-03T12:07:22.352Z,101575.82
2018-06-03T12:09:52.202Z,101578.47
2018-06-03T12:12:21.689Z,101570.17
2018-06-03T12:14:51.237Z,101570.81
2018-06-03T12:17:20.802Z,101571.55
2018-06-03T12:19:50.286Z,101569.48
2018-06-03T12:22:19.800Z,101565.16
2018-06-03T12:24:50.179Z,101565.94
2018-06-03T12:27:19.997Z,101565.95
2018-06-03T12:29:50.069Z,101559.06
2018-06-03T12:32:19.981Z,101565.19
2018-06-03T12:34:49.656Z,101567.53
2018-06-03T12:37:19.401Z,101565.23
2018-06-03T12:39:49.637Z,101557.31
2018-06-03T12:42:19.939Z,101564.29
2018-06-03T12:44:49.951Z,101563.88
2018-06-03T12:47:24.730Z,101563.19
2018-06-03T12:49:56.230Z,101566.75
2018-06-03T12:52:26.120Z,101565.33
2018-06-03T12:54:55.841Z,101561.64
2018-06-03T12:57:25.486Z,101556.83
2018-06-03T12:59:56.136Z,101553.89
2018-06-03T13:02:25.861Z,101565.11
2018-06-03T13:04:55.213Z,101560.02
2018-06-03T13:07:24.843Z,101556.31
2018-06-03T13:09:54.932Z,101547.80
2018-06-03T13:12:24.552Z,101546.70
2018-06-03T13:14:54.172Z,101554.52
2018-06-03T13:17:23.732Z,101558.95
2018-06-03T13:19:53.201Z,101553.02
2018-06-03T13:22:23.631Z,101554.52
2018-06-03T13:24:53.419Z,101553.94
2018-06-03T13:27:22.924Z,101551.27
2018-06-03T13:29:52.695Z,101547.55
2018-06-03T13:32:22.114Z,101553.69
2018-06-03T13:34:51.545Z,101555.11
2018-06-03T13:37:21.209Z,101541.64
2018-06-03T13:39:50.615Z,101543.03
2018-06-03T13:42:20.090Z,101541.66
2018-06-03T13:44:49.519Z,101542.28
2018-06-03T13:47:18.992Z,101535.70
2018-06-03T13:49:48.567Z,101525.80
2018-06-03T13:52:18.954Z,101520.64
2018-06-03T13:54:48.262Z,101524.48
2018-06-03T13:57:17.553Z,101512.19
2018-06-03T13:59:46.853Z,101515.77
2018-06-03T14:02:16.148Z,101517.83
2018-06-03T14:04:45.372Z,101507.09
2018-06-03T14:07:14.780Z,101499.24
2018-06-03T14:09:44.063Z,101496.48
2018-06-03T14:12:13.345Z,101494.25
2018-06-03T14:14:42.624Z,101491.99
2018-06-03T14:17:11.836Z,101485.21
2018-06-03T14:19:41.053Z,101491.52
2018-06-03T14:22:10.299Z,101484.59
2018-06-03T14:24:39.689Z,101487.70
2018-06-03T14:27:09.005Z,101484.26
2018-06-03T14:29:38.311Z,101488.69
2018-06-03T14:32:07.540Z,101488.53
2018-06-03T14:34:36.891Z,101479.27
2018-06-03T14:37:06.417Z,101484.14
2018-06-03T14:39:35.669Z,101476.30
2018-06-03T14:42:05.125Z,101480.78
2018-06-03T14:44:34.419Z,101473.18
2018-06-03T14:47:03.653Z,101470.20
2018-06-03T14:49:33.020Z,101468.48
2018-06-03T14:52:03.204Z,101473.38
2018-06-03T14:54:32.418Z,101469.14
2018-06-03T14:57:01.850Z,101462.50
2018-06-03T14:59:31.117Z,101451.20
2018-06-03T15:02:00.434Z,101457.52
2018-06-03T15:04:29.724Z,101455.73
2018-06-03T15:06:59.658Z,101452.34
2018-06-03T15:09:29.032Z,101451.57
2018-06-03T15:11:58.408Z,101449.63
2018-06-03T15:14:27.954Z,101449.45
2018-06-03T15:16:57.477Z,101450.45
2018-06-03T15:19:26.965Z,101443.94
2018-06-03T15:21:56.451Z,101450.95
2018-06-03T15:24:25.924Z,101446.45
2018-06-03T15:26:55.436Z,101439.45
2018-06-03T15:29:25.131Z,101439.45
2018-06-03T15:31:54.633Z,101443.96
2018-06-03T15:34:24.509Z,101437.41
2018-06-03T15:36:54.342Z,101436.23
2018-06-03T15:39:24.182Z,101437.27
2018-06-03T15:41:54.054Z,101438.96
2018-06-03T15:44:24.041Z,101437.27
2018-06-03T15:46:53.807Z,101435.05
2018-06-03T15:49:23.430Z,101438.97
2018-06-03T15:51:52.955Z,101441.18
2018-06-03T15:54:22.557Z,101435.80
2018-06-03T15:56:52.428Z,101434.58
2018-06-03T15:59:22.135Z,101435.16
2018-06-03T16:01:51.857Z,101425.31
2018-06-03T16:04:21.464Z,101422.59
2018-06-03T16:06:51.615Z,101420.25
2018-06-03T16:09:21.394Z,101420.41
2018-06-03T16:11:51.042Z,101411.09
2018-06-03T16:14:21.908Z,101407.34
2018-06-03T16:16:51.774Z,101407.55
2018-06-03T16:19:21.873Z,101406.55
2018-06-03T16:21:51.549Z,101400.67
2018-06-03T16:24:21.347Z,101390.73
2018-06-03T16:26:50.824Z,101397.59
2018-06-03T16:29:20.793Z,101397.25
2018-06-03T16:31:50.327Z,101391.95
2018-06-03T16:34:19.769Z,101390.89
2018-06-03T16:36:49.295Z,101388.97
2018-06-03T16:39:18.769Z,101389.45
2018-06-03T16:41:50.791Z,101385.56
2018-06-03T16:44:20.327Z,101379.48
2018-06-03T16:46:50.002Z,101375.28
2018-06-03T16:49:19.485Z,101364.84
2018-06-03T16:51:48.991Z,101372.62
2018-06-03T16:54:18.562Z,101373.45
2018-06-03T16:56:49.070Z,101373.34
2018-06-03T16:59:18.607Z,101378.74
2018-06-03T17:01:48.116Z,101373.53
2018-06-03T17:04:17.499Z,101372.83
2018-06-03T17:06:47.478Z,101371.88
2018-06-03T17:09:17.080Z,101371.66
2018-06-03T17:11:46.950Z,101375.95
2018-06-03T17:14:20.905Z,101368.09
2018-06-03T17:16:50.536Z,101357.45
2018-06-03T17:19:24.241Z,101356.65
2018-06-03T17:21:53.844Z,101356.35
2018-06-03T17:24:23.412Z,101351.89
2018-06-03T17:26:52.890Z,101356.15
2018-06-03T17:29:23.203Z,101350.12
2018-06-03T17:31:52.767Z,101349.79
2018-06-03T17:34:22.425Z,101347.86
2018-06-03T17:36:52.598Z,101352.98
2018-06-03T17:39:22.038Z,101345.87
2018-06-03T17:41:51.757Z,101344.20
2018-06-03T17:44:21.730Z,101342.17
2018-06-03T17:46:51.904Z,101345.90
2018-06-03T17:49:22.326Z,101341.20
2018-06-03T17:51:52.305Z,101339.48
2018-06-03T17:54:22.127Z,101334.73
2018-06-03T17:56:51.817Z,101331.92
2018-06-03T17:59:21.592Z,101335.31
2018-06-03T18:01:51.814Z,101324.87
2018-06-03T18:04:21.511Z,101319.64
2018-06-03T18:06:51.161Z,101319.41
2018-06-03T18:09:22.145Z,101312.53
2018-06-03T18:11:51.730Z,101312.87
2018-06-03T18:14:21.408Z,101313.66
2018-06-03T18:16:52.236Z,101311.30
2018-06-03T18:19:21.862Z,101310.02
2018-06-03T18:21:51.628Z,101319.42
2018-06-03T18:24:21.641Z,101308.98
2018-06-03T18:26:51.215Z,101315.98
2018-06-03T18:29:20.813Z,101305.67
2018-06-03T18:31:50.413Z,101311.57
2018-06-03T18:34:20.108Z,101305.53
2018-06-03T18:36:50.024Z,101303.88
2018-06-03T18:39:20.169Z,101306.06
2018-06-03T18:41:49.809Z,101309.59
2018-06-03T18:44:20.281Z,101304.80
2018-06-03T18:46:49.816Z,101311.02
2018-06-03T18:49:19.327Z,101305.69
2018-06-03T18:51:48.844Z,101305.47
2018-06-03T18:54:19.250Z,101303.26
2018-06-03T18:56:48.713Z,101302.45
2018-06-03T18:59:18.202Z,101302.27
2018-06-03T19:01:47.724Z,101306.74
2018-06-03T19:04:17.066Z,101306.66
2018-06-03T19:06:46.675Z,101310.31
2018-06-03T19:09:16.337Z,101303.45
2018-06-03T19:11:45.772Z,101306.25
2018-06-03T19:14:15.141Z,101313.44
2018-06-03T19:16:44.673Z,101304.36
2018-06-03T19:19:13.945Z,101308.94
2018-06-03T19:21:43.361Z,101310.30
2018-06-03T19:24:12.774Z,101311.31
2018-06-03T19:26:42.073Z,101317.05
2018-06-03T19:29:11.447Z,101312.58
2018-06-03T19:31:42.320Z,101311.55
2018-06-03T19:34:11.738Z,101313.25
2018-06-03T19:36:40.994Z,101306.81
2018-06-03T19:39:10.520Z,101310.80
2018-06-03T19:41:39.777Z,101308.01
2018-06-03T19:44:09.214Z,101307.84
2018-06-03T19:46:38.456Z,101309.87
2018-06-03T19:49:07.739Z,101307.83
2018-06-03T19:51:37.128Z,101304.58
2018-06-03T19:54:06.533Z,101303.33
2018-06-03T19:56:35.833Z,101304.31
2018-06-03T19:59:05.209Z,101302.29
2018-06-03T20:01:41.195Z,101301.88
2018-06-03T20:04:10.507Z,101292.69
2018-06-03T20:06:39.881Z,101294.14
2018-06-03T20:09:10.074Z,101294.05
2018-06-03T20:11:39.453Z,101294.87
2018-06-03T20:14:08.903Z,101295.02
2018-06-03T20:16:38.383Z,101298.90
2018-06-03T20:19:07.643Z,101301.54
2018-06-03T20:21:37.077Z,101311.69
2018-06-03T20:24:07.767Z,101307.59
2018-06-03T20:26:37.027Z,101315.64
2018-06-03T20:29:06.330Z,101310.44
2018-06-03T20:31:36.498Z,101309.59
2018-06-03T20:34:05.849Z,101312.41
2018-06-03T20:36:35.389Z,101310.13
2018-06-03T20:39:07.746Z,101306.84
2018-06-03T20:41:37.092Z,101313.50
2018-06-03T20:44:06.521Z,101315.70
2018-06-03T20:46:36.355Z,101319.17
2018-06-03T20:49:05.965Z,101314.02
2018-06-03T20:51:35.858Z,101309.14
2018-06-03T20:54:06.338Z,101311.27
2018-06-03T20:56:35.686Z,101312.98
2018-06-03T20:59:05.417Z,101312.03
2018-06-03T21:01:35.334Z,101304.91
2018-06-03T21:04:04.882Z,101311.08
2018-06-03T21:06:34.667Z,101307.47
2018-06-03T21:09:04.826Z,101312.80
2018-06-03T21:11:34.158Z,101314.59
2018-06-03T21:14:03.683Z,101317.59
2018-06-03T21:16:33.227Z,101306.34
2018-06-03T21:19:02.724Z,101307.78
2018-06-03T21:21:33.385Z,101303.43
2018-06-03T21:24:03.199Z,101307.78
2018-06-03T21:26:32.988Z,101306.62
2018-06-03T21:29:02.311Z,101304.48
2018-06-03T21:31:31.827Z,101306.47
2018-06-03T21:34:01.459Z,101305.06
2018-06-03T21:36:31.175Z,101303.65
2018-06-03T21:39:00.742Z,101304.76
2018-06-03T21:41:30.658Z,101309.59
2018-06-03T21:44:00.438Z,101305.09
2018-06-03T21:46:29.900Z,101306.73
2018-06-03T21:48:59.305Z,101301.83
2018-06-03T21:51:28.744Z,101301.33
2018-06-03T21:53:58.617Z,101302.69
2018-06-03T21:56:28.277Z,101300.44
2018-06-03T21:58:58.385Z,101296.45
2018-06-03T22:01:28.109Z,101293.80
2018-06-03T22:03:57.712Z,101297.75
2018-06-03T22:06:27.111Z,101300.06
2018-06-03T22:08:56.706Z,101296.16
2018-06-03T22:11:26.249Z,101297.81
2018-06-03T22:13:56.381Z,101294.96
2018-06-03T22:16:26.489Z,101299.95
2018-06-03T22:18:56.282Z,101305.22
2018-06-03T22:21:26.046Z,101299.73
2018-06-03T22:23:56.107Z,101298.58
2018-06-03T22:26:26.109Z,101292.91
2018-06-03T22:28:55.702Z,101298.52
2018-06-03T22:31:26.357Z,101298.02
2018-06-03T22:33:55.965Z,101294.47
2018-06-03T22:36:25.836Z,101300.67
2018-06-03T22:38:55.950Z,101298.37
2018-06-03T22:41:25.733Z,101298.16
2018-06-03T22:43:55.420Z,101296.51
2018-06-03T22:46:25.361Z,101296.45
2018-06-03T22:48:54.966Z,101290.30
2018-06-03T22:51:24.550Z,101293.10
2018-06-03T22:53:55.207Z,101283.97
2018-06-03T22:56:25.008Z,101293.49
2018-06-03T22:58:55.130Z,101295.08
2018-06-03T23:01:25.907Z,101291.98
2018-06-03T23:03:55.480Z,101290.73
2018-06-03T23:06:25.206Z,101288.80
2018-06-03T23:08:54.933Z,101289.88
2018-06-03T23:11:24.847Z,101291.94
2018-06-03T23:13:55.325Z,101283.54
2018-06-03T23:16:25.480Z,101281.42
2018-06-03T23:18:55.098Z,101284.13
2018-06-03T23:21:25.133Z,101282.42
2018-06-03T23:23:55.299Z,101286.89
2018-06-03T23:26:25.068Z,101284.69
2018-06-03T23:28:54.617Z,101282.64
2018-06-03T23:31:24.272Z,101276.53
2018-06-03T23:33:53.859Z,101283.44
2018-06-03T23:36:23.429Z,101279.58
2018-06-03T23:38:53.002Z,101275.33
2018-06-03T23:41:22.497Z,101277.09
2018-06-03T23:43:52.474Z,101267.43
2018-06-03T23:46:22.081Z,101275.69
2018-06-03T23:48:51.824Z,101269.43
2018-06-03T23:51:21.624Z,101267.78
2018-06-03T23:53:51.405Z,101263.87
2018-06-03T23:56:20.910Z,101252.36
2018-06-03T23:58:50.875Z,101257.03
